createdAt,value
2017-10-25T00:01:04.620Z,11.90
2017-10-25T00:06:04.363Z,11.90
2017-10-25T00:11:04.516Z,11.79
2017-10-25T00:16:04.105Z,12.04
2017-10-25T00:21:03.909Z,11.90
2017-10-25T00:26:03.670Z,11.90
2017-10-25T00:31:03.441Z,11.79
2017-10-25T00:36:04.405Z,11.79
2017-10-25T00:41:03.406Z,11.79
2017-10-25T00:46:04.315Z,12.04
2017-10-25T00:51:03.986Z,11.93
2017-10-25T00:56:03.732Z,11.90
2017-10-25T01:01:03.522Z,11.90
2017-10-25T01:06:04.440Z,11.79
2017-10-25T01:11:03.500Z,11.79
2017-10-25T01:16:04.459Z,11.79
2017-10-25T01:21:04.196Z,11.79
2017-10-25T01:26:03.874Z,11.81
2017-10-25T01:31:03.703Z,11.79
2017-10-25T01:36:03.457Z,11.79
2017-10-25T01:41:03.638Z,11.92
2017-10-25T01:46:03.408Z,11.79
2017-10-25T01:51:04.121Z,11.79
2017-10-25T01:56:04.028Z,11.79
2017-10-25T02:01:03.788Z,11.79
2017-10-25T02:06:03.600Z,11.79
2017-10-25T02:11:03.792Z,11.81
2017-10-25T02:16:03.504Z,11.79
2017-10-25T02:21:04.546Z,11.79
2017-10-25T02:26:04.175Z,11.79
2017-10-25T02:31:03.930Z,11.81
2017-10-25T02:36:04.288Z,11.81
2017-10-25T02:41:04.024Z,11.81
2017-10-25T02:46:03.870Z,11.81
2017-10-25T02:51:03.582Z,11.79
2017-10-25T02:56:04.585Z,11.81
2017-10-25T03:01:04.108Z,11.81
2017-10-25T03:06:03.895Z,11.81
2017-10-25T03:11:04.059Z,11.81
2017-10-25T03:16:03.847Z,11.81
2017-10-25T03:21:03.705Z,11.81
2017-10-25T03:26:03.442Z,11.81
2017-10-25T03:31:04.233Z,11.81
2017-10-25T03:36:04.044Z,11.81
2017-10-25T03:41:04.138Z,11.79
2017-10-25T03:46:03.943Z,11.79
2017-10-25T03:51:03.660Z,11.76
2017-10-25T03:56:03.407Z,11.76
2017-10-25T04:01:04.167Z,11.74
2017-10-25T04:06:04.006Z,11.86
2017-10-25T04:11:04.110Z,11.86
2017-10-25T04:16:03.912Z,11.84
2017-10-25T04:21:03.817Z,11.95
2017-10-25T04:26:03.936Z,11.93
2017-10-25T04:31:03.729Z,11.93
2017-10-25T04:36:03.465Z,11.93
2017-10-25T04:41:03.637Z,11.93
2017-10-25T04:46:04.452Z,11.91
2017-10-25T04:51:04.141Z,11.79
2017-10-25T04:56:03.879Z,11.93
2017-10-25T05:01:04.026Z,11.93
2017-10-25T05:06:03.777Z,11.84
2017-10-25T05:11:03.936Z,11.95
2017-10-25T05:16:03.767Z,12.09
2017-10-25T05:21:03.586Z,11.95
2017-10-25T05:26:04.390Z,11.86
2017-10-25T05:31:04.178Z,11.86
2017-10-25T05:36:03.996Z,11.86
2017-10-25T05:41:04.143Z,11.86
2017-10-25T05:46:03.968Z,11.86
2017-10-25T05:51:03.778Z,11.86
2017-10-25T05:56:03.604Z,11.84
2017-10-25T06:01:04.359Z,11.84
2017-10-25T06:06:04.214Z,11.95
2017-10-25T06:11:04.349Z,11.95
2017-10-25T06:16:04.178Z,11.93
2017-10-25T06:21:03.989Z,11.95
2017-10-25T06:26:03.769Z,11.95
2017-10-25T06:31:03.547Z,11.84
2017-10-25T06:36:04.301Z,11.86
2017-10-25T06:41:03.473Z,11.86
2017-10-25T06:46:04.227Z,11.86
2017-10-25T06:51:03.990Z,11.86
2017-10-25T06:56:03.759Z,11.86
2017-10-25T07:01:03.575Z,11.86
2017-10-25T07:06:03.400Z,11.84
2017-10-25T07:11:03.615Z,11.95
2017-10-25T07:16:04.367Z,11.95
2017-10-25T07:21:04.260Z,11.81
2017-10-25T07:26:04.004Z,11.81
2017-10-25T07:31:03.765Z,11.95
2017-10-25T07:36:03.558Z,11.95
2017-10-25T07:41:03.732Z,11.86
2017-10-25T07:46:03.454Z,11.86
2017-10-25T07:51:04.291Z,11.99
2017-10-25T07:56:04.113Z,11.86
2017-10-25T08:01:03.847Z,11.86
2017-10-25T08:06:03.629Z,11.86
2017-10-25T08:11:03.786Z,11.84
2017-10-25T08:16:03.511Z,11.95
2017-10-25T08:21:04.430Z,11.95
2017-10-25T08:26:05.550Z,11.95
2017-10-25T08:31:03.823Z,11.95
2017-10-25T08:36:03.657Z,11.95
2017-10-25T08:41:03.888Z,11.84
2017-10-25T08:46:03.639Z,11.84
2017-10-25T08:51:03.430Z,11.86
2017-10-25T08:56:04.240Z,11.88
2017-10-25T09:01:04.049Z,11.88
2017-10-25T09:06:03.910Z,12.00
2017-10-25T09:11:04.095Z,11.98
2017-10-25T09:16:03.880Z,11.98
2017-10-25T09:21:03.697Z,11.95
2017-10-25T09:26:03.463Z,12.09
2017-10-25T09:31:04.240Z,11.95
2017-10-25T09:36:04.009Z,11.95
2017-10-25T09:41:04.177Z,11.95
2017-10-25T09:46:04.070Z,11.95
2017-10-25T09:51:03.853Z,11.86
2017-10-25T09:56:03.659Z,11.86
2017-10-25T10:01:03.446Z,11.86
2017-10-25T10:06:04.237Z,11.88
2017-10-25T10:11:04.358Z,11.88
2017-10-25T10:16:04.170Z,11.86
2017-10-25T10:21:04.132Z,11.86
2017-10-25T10:26:03.900Z,11.95
2017-10-25T10:31:03.630Z,11.95
2017-10-25T10:36:03.473Z,11.95
2017-10-25T10:41:03.670Z,11.95
2017-10-25T10:46:03.405Z,11.95
2017-10-25T10:51:04.189Z,11.84
2017-10-25T10:56:03.908Z,11.95
2017-10-25T11:01:04.102Z,11.84
2017-10-25T11:06:03.972Z,11.86
2017-10-25T11:11:04.162Z,11.86
2017-10-25T11:16:03.963Z,11.95
2017-10-25T11:21:03.775Z,11.95
2017-10-25T11:26:03.536Z,11.95
2017-10-25T11:31:04.324Z,11.95
2017-10-25T11:36:04.074Z,11.84
2017-10-25T11:41:04.241Z,11.95
2017-10-25T11:46:03.966Z,11.93
2017-10-25T11:51:03.806Z,11.93
2017-10-25T11:56:03.601Z,11.95
2017-10-25T12:01:04.378Z,11.95
2017-10-25T12:06:04.101Z,11.95
2017-10-25T12:11:04.339Z,11.95
2017-10-25T12:16:04.088Z,11.95
2017-10-25T12:21:03.953Z,11.86
2017-10-25T12:26:03.757Z,11.95
2017-10-25T12:31:03.579Z,11.95
2017-10-25T12:36:03.418Z,11.93
2017-10-25T12:41:03.572Z,11.93
2017-10-25T12:46:04.383Z,11.93
2017-10-25T12:51:04.133Z,11.84
2017-10-25T12:56:03.910Z,11.84
2017-10-25T13:01:03.689Z,11.97
2017-10-25T13:06:03.465Z,11.95
2017-10-25T13:11:03.715Z,11.95
2017-10-25T13:16:03.506Z,11.84
2017-10-25T13:21:04.362Z,11.95
2017-10-25T13:26:04.187Z,11.84
2017-10-25T13:31:03.909Z,11.95
2017-10-25T13:36:03.662Z,11.93
2017-10-25T13:41:03.842Z,11.93
2017-10-25T13:46:03.598Z,11.93
2017-10-25T13:51:03.382Z,11.93
2017-10-25T13:56:04.169Z,11.93
2017-10-25T14:01:04.023Z,11.95
2017-10-25T14:06:03.789Z,11.84
2017-10-25T14:11:04.038Z,11.84
2017-10-25T14:16:03.801Z,11.86
2017-10-25T14:21:03.667Z,11.95
2017-10-25T14:26:03.438Z,11.95
2017-10-25T14:31:04.228Z,11.95
2017-10-25T14:36:03.932Z,11.95
2017-10-25T14:41:04.157Z,11.81
2017-10-25T14:46:03.903Z,11.95
2017-10-25T14:51:03.718Z,12.00
2017-10-25T14:56:03.707Z,12.00
2017-10-25T15:01:04.374Z,12.00
2017-10-25T15:06:04.129Z,12.00
2017-10-25T15:11:03.736Z,12.02
2017-10-25T15:16:03.464Z,12.00
2017-10-25T15:21:04.320Z,11.88
2017-10-25T15:26:04.146Z,11.88
2017-10-25T15:31:03.923Z,12.00
2017-10-25T15:36:03.725Z,12.02
2017-10-25T15:41:03.961Z,12.02
2017-10-25T15:46:03.634Z,12.02
2017-10-25T15:51:03.427Z,12.02
2017-10-25T15:56:04.226Z,12.02
2017-10-25T16:01:11.034Z,12.02
2017-10-25T16:06:11.208Z,12.02
2017-10-25T16:11:04.532Z,12.02
2017-10-25T16:16:04.143Z,12.02
2017-10-25T16:21:04.109Z,12.00
2017-10-25T16:26:03.851Z,12.00
2017-10-25T16:31:03.735Z,11.98
2017-10-25T16:36:03.455Z,11.98
2017-10-25T16:41:03.607Z,12.00
2017-10-25T16:46:04.750Z,12.00
2017-10-25T16:51:04.443Z,12.00
2017-10-25T16:56:04.310Z,12.00
2017-10-25T17:01:04.100Z,11.98
2017-10-25T17:06:04.888Z,12.12
2017-10-25T17:11:03.787Z,12.00
2017-10-25T17:16:03.630Z,12.00
2017-10-25T17:21:04.369Z,12.16
2017-10-25T17:26:04.154Z,12.18
2017-10-25T17:31:03.905Z,12.21
2017-10-25T17:36:03.798Z,12.25
2017-10-25T17:41:04.013Z,12.30
2017-10-25T17:46:03.779Z,12.30
2017-10-25T17:51:05.366Z,12.30
2017-10-25T17:56:04.386Z,12.30
2017-10-25T18:01:04.199Z,12.27
2017-10-25T18:06:04.139Z,12.27
2017-10-25T18:11:04.679Z,12.13
2017-10-25T18:16:04.284Z,12.13
2017-10-25T18:21:04.689Z,12.13
2017-10-25T18:26:03.664Z,12.13
2017-10-25T18:31:04.110Z,12.13
2017-10-25T18:36:05.003Z,12.13
2017-10-25T18:41:04.168Z,12.13
2017-10-25T18:46:04.139Z,12.13
2017-10-25T18:51:04.303Z,12.11
2017-10-25T18:56:04.149Z,12.11
2017-10-25T19:01:04.760Z,12.09
2017-10-25T19:06:04.671Z,12.09
2017-10-25T19:11:03.738Z,12.07
2017-10-25T19:16:03.523Z,12.18
2017-10-25T19:21:04.353Z,12.18
2017-10-25T19:26:04.152Z,12.18
2017-10-25T19:31:03.965Z,12.18
2017-10-25T19:36:03.738Z,12.18
2017-10-25T19:41:03.899Z,12.07
2017-10-25T19:46:03.862Z,12.07
2017-10-25T19:51:04.653Z,12.07
2017-10-25T19:56:04.085Z,12.09
2017-10-25T20:01:05.645Z,12.09
2017-10-25T20:06:03.676Z,12.09
2017-10-25T20:11:03.958Z,12.09
2017-10-25T20:16:04.391Z,12.09
2017-10-25T20:21:04.096Z,12.07
2017-10-25T20:26:03.879Z,12.07
2017-10-25T20:31:03.643Z,12.07
2017-10-25T20:36:04.378Z,12.07
2017-10-25T20:41:03.687Z,12.04
2017-10-25T20:46:04.941Z,12.04
2017-10-25T20:51:04.194Z,12.04
2017-10-25T20:56:04.015Z,12.04
2017-10-25T21:01:03.781Z,12.04
2017-10-25T21:06:03.569Z,12.04
2017-10-25T21:11:03.736Z,12.04
2017-10-25T21:16:03.565Z,12.04
2017-10-25T21:21:03.394Z,12.04
2017-10-25T21:26:04.205Z,12.04
2017-10-25T21:31:03.968Z,12.07
2017-10-25T21:36:03.754Z,12.07
2017-10-25T21:41:04.080Z,12.07
2017-10-25T21:46:03.758Z,12.07
2017-10-25T21:51:03.688Z,12.09
2017-10-25T21:56:03.519Z,12.09
2017-10-25T22:01:04.702Z,12.09
2017-10-25T22:06:04.176Z,12.09
2017-10-25T22:11:04.314Z,11.97
2017-10-25T22:16:04.176Z,11.97
2017-10-25T22:21:04.022Z,11.97
2017-10-25T22:26:03.799Z,11.97
2017-10-25T22:31:03.581Z,11.97
2017-10-25T22:36:04.394Z,12.09
2017-10-25T22:41:03.515Z,11.97
2017-10-25T22:46:04.812Z,11.97
2017-10-25T22:51:03.692Z,11.99
2017-10-25T22:56:03.516Z,11.97
2017-10-25T23:01:04.348Z,11.97
2017-10-25T23:06:04.127Z,11.97
2017-10-25T23:11:04.317Z,11.97
2017-10-25T23:16:04.044Z,11.97
2017-10-25T23:21:03.839Z,11.97
2017-10-25T23:26:03.617Z,11.97
2017-10-25T23:31:04.367Z,11.97
2017-10-25T23:36:04.161Z,11.97
2017-10-25T23:41:04.321Z,11.97
2017-10-25T23:46:04.082Z,11.97
2017-10-25T23:51:04.032Z,11.97
2017-10-25T23:56:03.788Z,11.97
